Holden, MO (64040)

11:19 AM CST on December 25, 2014 (GMT -0600)
Holden Missouri | Change Station
CLOSE
Current Station
Personal Weather Station
Location: Holden, MO
Elevation: 900 ft
Nearby Weather Stations

Elev 900 ft 38.70 °N, 93.99 °W | Updated 6 seconds ago

Clear
Clear
47.3 °F
Feels Like 40 °F
N
20.2
Wind Variable Wind from South
Gusts 33.9 mph

Today
High -- | Low -- °F
--% Chance of Precip.
Yesterday
High -- | Low -- °F
Precip. -- in
7:32 AM 5:00 PM
Waxing Crescent, 17% visible
Pressure 29.86 in
Visibility 10.0 miles
Clouds Clear
Windchill 40 °F
Dew Point -3 °F
Humidity 12%
Rainfall 0.00 in
Snow Depth Not available.
UV 2 out of 12
Pollen .10 out of 12
Air Quality Not available.
Flu Activity Not available.
METAR KRCM 251715Z AUTO 17013G26KT 10SM CLR 07/M01 A2986 RMK AO2

More Conditions Fewer Conditions

Pressure 29.86 in
Visibility 10.0 miles
Clouds Clear
Windchill 40 °F
Dew Point -3 °F
Humidity 12%
Rainfall 0.00 in
Snow Depth Not available.
UV 2 out of 12
Pollen .10 out of 12
Air Quality Not available.
Flu Activity Not available.
METAR KRCM 251715Z AUTO 17013G26KT 10SM CLR 07/M01 A2986 RMK AO2

More Conditions Fewer Conditions

10-Day Weather Forecast

Almanac

Astronomy

Dec. 25, 2014 Rise Set
Actual Time
Civil Twilight
Nautical Twilight
Astronomical Twilight
Moon
Length of Visible Light
Length of Day
Tomorrow will be .
, % of the Moon is Illuminated

Today's Extremes

State Highs State Lows

Community

WunderPhotos

Upload Photos

1,780,346 photos uploaded!

WunderBlogs® & News

Nearby

Air Quality

  Air Quality AQ Index Pollutant
Not available.

Snow Depth

Station Depth Elevation

Earthquake Activity

City Distance Mag. Time & Date
Minimum magnitude displayed is 2.5.

Coastal Water Temperatures

Place Temperature

Nearby Weather Stations